Time;durP1;ratioP1;P1;durP2;ratioP2;P2;SDS_P1;SDS_P2;PMS_P1;PMS_P2;Temp;Humidity;BMP_temperature;BMP_pressure;BME280_temperature;BME280_humidity;BME280_pressure;Samples;Min_cycle;Max_cycle;Signal;HPM_P1;HPM_P2
2022/05/03 00:02:10;;;;;;;;;42.25;35.75;;;;;;;;5001906;28;51259;-47
2022/05/03 00:04:39;;;;;;;;;40.00;34.25;;;;;;;;5008462;28;51513;-49
2022/05/03 00:07:10;;;;;;;;;39.25;34.75;;;;;;;;5033707;28;52012;-49
2022/05/03 00:09:44;;;;;;;;;42.50;36.00;;;;;;;;5040656;28;51233;-48
2022/05/03 00:12:12;;;;;;;;;40.50;35.00;;;;;;;;5019078;28;51694;-48
2022/05/03 00:14:45;;;;;;;;;40.25;34.75;;;;;;;;5031591;28;51221;-48
2022/05/03 00:17:13;;;;;;;;;43.25;38.00;;;;;;;;5019437;28;51598;-49
2022/05/03 00:19:38;;;;;;;;;37.75;34.00;;;;;;;;5037742;28;51107;-48
2022/05/03 00:22:03;;;;;;;;;38.50;34.25;;;;;;;;5028295;28;51243;-48
2022/05/03 00:24:29;;;;;;;;;44.25;37.75;;;;;;;;5032590;28;50894;-48
2022/05/03 00:26:54;;;;;;;;;44.25;38.00;;;;;;;;5037507;28;51967;-47
2022/05/03 00:29:20;;;;;;;;;44.00;37.25;;;;;;;;5023895;28;51368;-47
2022/05/03 00:31:45;;;;;;;;;46.25;38.25;;;;;;;;5024560;28;51100;-49
2022/05/03 00:34:10;;;;;;;;;41.50;35.50;;;;;;;;5027493;28;51431;-51
2022/05/03 00:36:36;;;;;;;;;37.50;33.00;;;;;;;;5026835;28;52035;-48
2022/05/03 00:39:01;;;;;;;;;37.00;34.75;;;;;;;;5038591;28;51049;-48
2022/05/03 00:41:49;;;;;;;;;42.00;36.50;;;;;;;;5031119;28;50940;-46
2022/05/03 00:47:02;;;;;;;;;46.25;38.00;;;;;;;;5017349;28;51444;-49
2022/05/03 00:49:35;;;;;;;;;44.50;36.00;;;;;;;;5041760;28;51069;-47
2022/05/03 00:52:03;;;;;;;;;45.00;38.00;;;;;;;;5032799;28;51212;-47
2022/05/03 00:54:43;;;;;;;;;40.00;36.50;;;;;;;;5040652;28;51006;-48
2022/05/03 00:57:29;;;;;;;;;41.50;36.50;;;;;;;;5028797;28;51266;-46
2022/05/03 01:00:06;;;;;;;;;51.25;39.50;;;;;;;;5016997;28;52013;-48
2022/05/03 01:02:37;;;;;;;;;48.25;40.50;;;;;;;;5010317;28;51428;-48
2022/05/03 01:05:10;;;;;;;;;43.25;37.00;;;;;;;;5027619;28;51744;-48
2022/05/03 01:07:53;;;;;;;;;41.50;36.50;;;;;;;;5024988;28;52477;-49
2022/05/03 01:10:21;;;;;;;;;37.75;35.00;;;;;;;;5045708;28;51051;-48
2022/05/03 01:13:05;;;;;;;;;36.75;34.25;;;;;;;;5033826;28;50949;-47
2022/05/03 01:15:37;;;;;;;;;42.50;37.25;;;;;;;;5038541;28;51368;-47
2022/05/03 01:18:14;;;;;;;;;39.25;36.00;;;;;;;;5029369;28;51177;-47
2022/05/03 01:20:42;;;;;;;;;41.00;37.00;;;;;;;;5037971;28;51001;-46
2022/05/03 01:23:27;;;;;;;;;47.50;39.00;;;;;;;;5024126;28;51134;-46
2022/05/03 01:26:10;;;;;;;;;41.00;36.00;;;;;;;;5034651;28;51086;-48
2022/05/03 01:28:51;;;;;;;;;37.75;35.00;;;;;;;;5032623;28;51983;-48
2022/05/03 01:31:16;;;;;;;;;45.25;37.25;;;;;;;;5040713;28;51117;-49
2022/05/03 01:33:42;;;;;;;;;45.75;38.50;;;;;;;;5041142;28;51182;-46
2022/05/03 01:36:08;;;;;;;;;39.75;35.75;;;;;;;;5028578;28;51277;-48
2022/05/03 01:38:39;;;;;;;;;33.75;31.25;;;;;;;;5038692;28;51144;-47
2022/05/03 01:41:23;;;;;;;;;36.75;33.00;;;;;;;;5031688;28;50979;-52
2022/05/03 01:44:07;;;;;;;;;38.00;35.25;;;;;;;;5035088;28;51520;-46
2022/05/03 01:46:35;;;;;;;;;46.75;38.25;;;;;;;;5037714;28;51178;-47
2022/05/03 01:52:04;;;;;;;;;41.00;36.25;;;;;;;;5034469;28;51323;-46
2022/05/03 01:54:52;;;;;;;;;40.50;36.00;;;;;;;;5027910;28;50937;-47
2022/05/03 01:57:21;;;;;;;;;44.00;35.00;;;;;;;;5014336;28;51555;-48
2022/05/03 01:59:55;;;;;;;;;42.75;36.50;;;;;;;;5043678;28;52054;-54
2022/05/03 02:02:25;;;;;;;;;41.25;35.50;;;;;;;;5028614;28;50927;-46
2022/05/03 02:04:59;;;;;;;;;36.75;34.75;;;;;;;;5035744;28;51124;-50
2022/05/03 02:07:34;;;;;;;;;44.00;37.25;;;;;;;;5032361;28;54757;-48
2022/05/03 02:09:59;;;;;;;;;34.00;30.25;;;;;;;;5023487;28;50972;-48
2022/05/03 02:12:25;;;;;;;;;41.25;37.25;;;;;;;;5037884;28;51116;-48
2022/05/03 02:14:52;;;;;;;;;42.75;35.75;;;;;;;;5047836;28;51061;-47
2022/05/03 02:17:30;;;;;;;;;39.00;35.25;;;;;;;;5029888;28;50903;-47
2022/05/03 02:19:55;;;;;;;;;38.50;33.50;;;;;;;;5040410;28;51588;-47
2022/05/03 02:22:20;;;;;;;;;37.00;34.75;;;;;;;;5020510;28;51278;-46
2022/05/03 02:25:09;;;;;;;;;40.25;35.75;;;;;;;;5022437;28;51138;-47
2022/05/03 02:27:35;;;;;;;;;41.25;33.25;;;;;;;;5010735;28;54784;-48
2022/05/03 02:30:00;;;;;;;;;44.50;34.00;;;;;;;;5039268;28;51691;-49
2022/05/03 02:32:55;;;;;;;;;35.75;31.00;;;;;;;;5029353;28;51370;-47
2022/05/03 02:35:24;;;;;;;;;43.25;35.00;;;;;;;;5022062;28;51145;-50
2022/05/03 02:38:02;;;;;;;;;41.25;35.25;;;;;;;;5012951;28;51114;-49
2022/05/03 02:40:30;;;;;;;;;41.25;35.75;;;;;;;;5034300;28;51753;-47
2022/05/03 02:42:56;;;;;;;;;38.75;34.00;;;;;;;;5017181;28;51028;-46
2022/05/03 02:45:21;;;;;;;;;40.50;33.75;;;;;;;;5039649;28;50968;-49
2022/05/03 02:48:05;;;;;;;;;36.75;34.00;;;;;;;;5032081;28;51110;-49
2022/05/03 02:50:33;;;;;;;;;39.50;35.00;;;;;;;;5028783;28;52453;-48
2022/05/03 02:53:03;;;;;;;;;38.00;33.00;;;;;;;;5028181;28;51224;-49
2022/05/03 02:55:46;;;;;;;;;42.75;36.25;;;;;;;;5033392;28;51136;-47
2022/05/03 02:58:22;;;;;;;;;39.00;35.25;;;;;;;;5027353;28;51553;-47
2022/05/03 03:04:07;;;;;;;;;38.75;33.25;;;;;;;;5031065;28;51116;-47
2022/05/03 03:06:34;;;;;;;;;39.00;35.00;;;;;;;;4984787;28;51256;-49
2022/05/03 03:09:00;;;;;;;;;40.00;35.25;;;;;;;;5032148;28;51480;-48
2022/05/03 03:11:32;;;;;;;;;40.00;36.00;;;;;;;;5036657;28;51034;-50
2022/05/03 03:14:09;;;;;;;;;38.25;33.00;;;;;;;;5037607;28;51132;-49
2022/05/03 03:16:36;;;;;;;;;37.00;33.50;;;;;;;;5029490;28;55839;-48
2022/05/03 03:19:19;;;;;;;;;38.25;35.25;;;;;;;;5027922;28;51215;-47
2022/05/03 03:21:47;;;;;;;;;40.75;35.50;;;;;;;;5009092;28;51260;-48
2022/05/03 03:24:13;;;;;;;;;36.75;33.50;;;;;;;;5049910;28;51060;-47
2022/05/03 03:26:40;;;;;;;;;31.50;31.25;;;;;;;;5032997;28;51196;-47
2022/05/03 03:29:07;;;;;;;;;39.00;34.75;;;;;;;;5036443;28;51299;-48
2022/05/03 03:31:34;;;;;;;;;35.50;33.00;;;;;;;;5037560;28;52211;-47
2022/05/03 03:34:01;;;;;;;;;32.50;30.25;;;;;;;;5030726;28;51014;-47
2022/05/03 03:36:26;;;;;;;;;40.50;36.25;;;;;;;;5034486;28;51076;-47
2022/05/03 03:38:51;;;;;;;;;45.00;37.25;;;;;;;;5030005;28;51303;-49
2022/05/03 03:41:18;;;;;;;;;42.50;38.00;;;;;;;;5028616;28;53136;-49
2022/05/03 03:43:43;;;;;;;;;41.25;36.00;;;;;;;;5037525;28;51273;-46
2022/05/03 03:46:08;;;;;;;;;42.50;35.50;;;;;;;;5042198;28;51046;-48
2022/05/03 03:48:33;;;;;;;;;48.50;38.50;;;;;;;;5038914;28;52843;-50
2022/05/03 03:51:00;;;;;;;;;37.75;33.50;;;;;;;;5026333;28;52849;-48
2022/05/03 03:53:26;;;;;;;;;41.00;36.00;;;;;;;;5035545;28;50942;-47
2022/05/03 03:55:51;;;;;;;;;42.25;36.25;;;;;;;;5035557;28;51119;-47
2022/05/03 03:58:17;;;;;;;;;47.00;36.50;;;;;;;;5027310;28;51243;-49
2022/05/03 04:00:42;;;;;;;;;37.50;35.25;;;;;;;;5035196;28;51897;-49
2022/05/03 04:03:08;;;;;;;;;41.00;36.50;;;;;;;;5029027;28;51049;-48
2022/05/03 04:05:34;;;;;;;;;44.25;37.00;;;;;;;;5036887;28;51000;-48
2022/05/03 04:07:59;;;;;;;;;39.75;36.50;;;;;;;;5030332;28;51393;-50
2022/05/03 04:10:24;;;;;;;;;41.00;35.50;;;;;;;;5031104;28;51886;-48
2022/05/03 04:12:50;;;;;;;;;42.50;37.50;;;;;;;;5027460;28;51169;-47
2022/05/03 04:15:15;;;;;;;;;40.50;34.75;;;;;;;;5037593;28;51058;-47
2022/05/03 04:17:40;;;;;;;;;34.50;31.25;;;;;;;;5040595;28;51256;-47
2022/05/03 04:20:06;;;;;;;;;39.50;35.25;;;;;;;;5032214;28;51580;-48
2022/05/03 04:22:32;;;;;;;;;43.50;38.75;;;;;;;;5030677;28;51164;-49
2022/05/03 04:24:58;;;;;;;;;45.50;38.25;;;;;;;;5034769;28;51124;-48
2022/05/03 04:27:24;;;;;;;;;43.50;37.00;;;;;;;;5039126;28;51135;-47
2022/05/03 04:29:49;;;;;;;;;47.75;41.00;;;;;;;;5032363;28;51698;-47
2022/05/03 04:32:15;;;;;;;;;40.75;36.50;;;;;;;;5031481;28;51317;-47
2022/05/03 04:34:40;;;;;;;;;44.25;37.00;;;;;;;;5031380;28;50810;-47
2022/05/03 04:37:05;;;;;;;;;37.50;34.75;;;;;;;;5027063;28;51022;-47
2022/05/03 04:39:31;;;;;;;;;43.50;39.00;;;;;;;;5035836;28;51870;-48
2022/05/03 04:41:56;;;;;;;;;38.00;33.50;;;;;;;;5032055;28;51180;-47
2022/05/03 04:44:21;;;;;;;;;43.50;37.50;;;;;;;;5034380;28;51210;-47
2022/05/03 04:46:46;;;;;;;;;40.50;36.75;;;;;;;;5030073;28;51117;-50
2022/05/03 04:49:12;;;;;;;;;41.75;37.00;;;;;;;;5045017;28;51913;-50
2022/05/03 04:51:37;;;;;;;;;47.00;39.00;;;;;;;;5027673;28;51237;-48
2022/05/03 04:54:02;;;;;;;;;41.50;36.50;;;;;;;;5031739;28;51487;-46
2022/05/03 04:56:27;;;;;;;;;44.00;38.00;;;;;;;;5040044;28;51248;-47
2022/05/03 04:58:56;;;;;;;;;47.00;38.00;;;;;;;;5033697;28;51158;-48
2022/05/03 05:01:21;;;;;;;;;44.25;38.25;;;;;;;;5042720;28;51069;-46
2022/05/03 05:03:47;;;;;;;;;43.25;38.00;;;;;;;;5030533;28;52741;-48
2022/05/03 05:06:12;;;;;;;;;49.75;38.75;;;;;;;;5032561;28;51149;-47
2022/05/03 05:08:38;;;;;;;;;45.75;39.75;;;;;;;;5025096;28;51089;-48
2022/05/03 05:11:04;;;;;;;;;44.75;37.75;;;;;;;;5041379;28;51124;-47
2022/05/03 05:13:29;;;;;;;;;49.00;39.50;;;;;;;;5029552;28;51150;-49
2022/05/03 05:15:55;;;;;;;;;44.00;37.50;;;;;;;;5034178;28;53123;-46
2022/05/03 05:18:20;;;;;;;;;46.25;38.75;;;;;;;;5031698;28;51033;-47
2022/05/03 05:20:46;;;;;;;;;45.75;37.50;;;;;;;;5025993;28;51242;-47
2022/05/03 05:23:11;;;;;;;;;36.00;31.50;;;;;;;;5033769;28;51387;-46
2022/05/03 05:25:36;;;;;;;;;41.75;36.00;;;;;;;;5042568;28;51251;-48
2022/05/03 05:28:01;;;;;;;;;39.50;35.25;;;;;;;;5035357;28;51337;-47
2022/05/03 05:30:26;;;;;;;;;41.50;35.75;;;;;;;;5040789;28;52605;-50
2022/05/03 05:32:52;;;;;;;;;45.00;37.00;;;;;;;;5027692;28;51108;-47
2022/05/03 05:35:17;;;;;;;;;47.50;40.25;;;;;;;;5043368;28;51144;-48
2022/05/03 05:37:42;;;;;;;;;45.00;38.75;;;;;;;;5041037;28;51984;-47
2022/05/03 05:40:08;;;;;;;;;43.50;38.50;;;;;;;;5033612;28;51021;-47
2022/05/03 05:42:35;;;;;;;;;43.00;38.00;;;;;;;;5029012;28;51412;-47
2022/05/03 05:45:00;;;;;;;;;45.75;36.75;;;;;;;;5045343;28;51004;-50
2022/05/03 05:47:27;;;;;;;;;43.00;36.50;;;;;;;;5025695;28;51903;-47
2022/05/03 05:49:52;;;;;;;;;48.00;40.00;;;;;;;;5051221;28;51207;-48
2022/05/03 05:55:01;;;;;;;;;49.00;38.25;;;;;;;;5044060;28;50863;-48
2022/05/03 05:57:26;;;;;;;;;45.75;37.75;;;;;;;;5045490;28;51811;-46
2022/05/03 05:59:51;;;;;;;;;45.00;38.00;;;;;;;;5053495;28;51094;-48
2022/05/03 06:02:17;;;;;;;;;42.50;35.50;;;;;;;;5024671;28;51309;-48
2022/05/03 06:04:42;;;;;;;;;47.25;37.75;;;;;;;;5026642;28;51207;-49
2022/05/03 06:07:07;;;;;;;;;44.50;36.50;;;;;;;;5027224;28;51022;-51
2022/05/03 06:09:33;;;;;;;;;46.00;37.75;;;;;;;;5033880;28;50972;-52
2022/05/03 06:11:58;;;;;;;;;43.50;37.50;;;;;;;;5030692;28;51129;-49
2022/05/03 06:14:23;;;;;;;;;43.50;36.75;;;;;;;;5033328;28;51991;-47
2022/05/03 06:16:53;;;;;;;;;49.00;40.50;;;;;;;;5030796;28;51219;-48
2022/05/03 06:19:19;;;;;;;;;45.75;38.75;;;;;;;;5034393;28;51023;-47
2022/05/03 06:21:44;;;;;;;;;41.00;37.00;;;;;;;;5022194;28;51172;-46
2022/05/03 06:24:10;;;;;;;;;42.25;37.75;;;;;;;;5027755;28;51196;-48
2022/05/03 06:26:35;;;;;;;;;46.75;39.00;;;;;;;;5042537;28;51144;-47
2022/05/03 06:29:06;;;;;;;;;48.50;39.25;;;;;;;;5033020;28;50962;-49
2022/05/03 06:31:32;;;;;;;;;42.00;36.75;;;;;;;;5035920;28;51094;-48
2022/05/03 06:33:57;;;;;;;;;43.50;38.50;;;;;;;;5005396;28;51436;-48
2022/05/03 06:36:22;;;;;;;;;41.50;35.50;;;;;;;;5034980;28;51128;-47
2022/05/03 06:38:48;;;;;;;;;42.25;38.00;;;;;;;;5021354;28;51426;-48
2022/05/03 06:41:13;;;;;;;;;43.50;38.00;;;;;;;;5034312;28;51381;-47
2022/05/03 06:43:38;;;;;;;;;45.75;38.75;;;;;;;;5035819;28;51116;-47
2022/05/03 06:46:04;;;;;;;;;54.50;42.25;;;;;;;;5029929;28;51121;-48
2022/05/03 06:48:29;;;;;;;;;46.75;37.75;;;;;;;;5046927;28;51092;-50
2022/05/03 06:50:54;;;;;;;;;42.00;38.00;;;;;;;;5035697;28;51408;-48
2022/05/03 06:53:19;;;;;;;;;38.25;35.50;;;;;;;;5024839;28;51148;-48
2022/05/03 06:55:45;;;;;;;;;48.00;41.25;;;;;;;;5040445;28;51165;-48
2022/05/03 06:58:10;;;;;;;;;53.00;41.25;;;;;;;;5032265;28;51082;-48
2022/05/03 07:00:35;;;;;;;;;50.25;40.00;;;;;;;;5033672;28;52664;-49
2022/05/03 07:03:00;;;;;;;;;49.00;38.50;;;;;;;;5041317;28;51053;-48
2022/05/03 07:05:26;;;;;;;;;39.00;34.50;;;;;;;;5038757;28;51189;-48
2022/05/03 07:07:51;;;;;;;;;40.50;34.75;;;;;;;;5035720;28;51182;-47
2022/05/03 07:10:16;;;;;;;;;51.75;43.50;;;;;;;;5032938;28;50937;-48
2022/05/03 07:12:42;;;;;;;;;46.50;38.50;;;;;;;;5042072;28;52124;-47
2022/05/03 07:15:08;;;;;;;;;47.50;36.50;;;;;;;;5027613;28;51334;-47
2022/05/03 07:23:01;;;;;;;;;47.00;39.00;;;;;;;;5049050;28;50953;-49
2022/05/03 07:25:27;;;;;;;;;46.50;38.50;;;;;;;;5033798;28;51334;-49
2022/05/03 07:27:52;;;;;;;;;46.25;38.25;;;;;;;;5028182;28;51637;-46
2022/05/03 07:30:18;;;;;;;;;51.25;41.50;;;;;;;;5031438;28;51287;-48
2022/05/03 07:32:43;;;;;;;;;50.00;41.00;;;;;;;;5032374;28;51045;-49
2022/05/03 07:35:09;;;;;;;;;49.50;40.75;;;;;;;;5040256;28;51766;-48
2022/05/03 07:37:34;;;;;;;;;49.25;40.50;;;;;;;;5030791;28;51157;-49
2022/05/03 07:39:59;;;;;;;;;46.25;39.00;;;;;;;;5029810;28;51082;-53
2022/05/03 07:42:24;;;;;;;;;54.25;42.75;;;;;;;;5027010;28;51032;-49
2022/05/03 07:44:50;;;;;;;;;50.25;40.00;;;;;;;;5032075;28;51048;-52
2022/05/03 07:47:15;;;;;;;;;44.00;37.00;;;;;;;;5036234;28;51060;-52
2022/05/03 07:49:41;;;;;;;;;42.00;35.50;;;;;;;;5041056;28;51441;-49
2022/05/03 07:52:07;;;;;;;;;42.50;36.25;;;;;;;;5028801;28;51106;-52
2022/05/03 07:54:32;;;;;;;;;41.75;36.50;;;;;;;;5038767;28;52910;-50
2022/05/03 07:56:58;;;;;;;;;44.75;37.50;;;;;;;;5030748;28;51148;-51
2022/05/03 07:59:25;;;;;;;;;36.25;33.75;;;;;;;;5037169;28;50984;-51
2022/05/03 08:01:50;;;;;;;;;49.50;43.00;;;;;;;;5028175;28;51144;-49
2022/05/03 08:04:15;;;;;;;;;37.00;34.00;;;;;;;;5033856;28;52039;-50
2022/05/03 08:06:40;;;;;;;;;41.50;34.75;;;;;;;;5033684;28;51221;-53
2022/05/03 08:09:06;;;;;;;;;44.00;36.00;;;;;;;;5034093;28;51199;-50
2022/05/03 08:11:31;;;;;;;;;35.25;33.25;;;;;;;;5018479;28;51312;-49
2022/05/03 08:13:56;;;;;;;;;45.75;39.00;;;;;;;;5035012;28;51401;-52
2022/05/03 08:16:22;;;;;;;;;38.75;34.50;;;;;;;;5025551;28;51136;-49
2022/05/03 08:18:48;;;;;;;;;43.25;36.25;;;;;;;;5035108;28;51157;-51
2022/05/03 08:21:13;;;;;;;;;44.00;37.00;;;;;;;;5033935;28;51489;-55
2022/05/03 08:23:39;;;;;;;;;41.50;36.25;;;;;;;;5013833;28;53860;-51
2022/05/03 08:26:05;;;;;;;;;43.00;37.25;;;;;;;;5015800;28;51248;-51
2022/05/03 08:28:30;;;;;;;;;42.75;35.25;;;;;;;;5033534;28;51181;-53
2022/05/03 08:30:55;;;;;;;;;36.50;33.25;;;;;;;;5029887;28;51600;-58
2022/05/03 08:33:20;;;;;;;;;45.50;36.25;;;;;;;;5030250;28;51170;-60
2022/05/03 08:35:46;;;;;;;;;41.50;35.75;;;;;;;;5030728;28;51237;-59
2022/05/03 08:43:39;;;;;;;;;34.50;32.25;;;;;;;;5026228;28;51344;-61
2022/05/03 08:46:06;;;;;;;;;36.00;33.00;;;;;;;;5028896;28;51130;-59
2022/05/03 08:48:33;;;;;;;;;29.25;28.25;;;;;;;;5029630;28;51062;-59
2022/05/03 08:51:00;;;;;;;;;32.50;29.75;;;;;;;;5034761;28;51146;-59
2022/05/03 08:53:25;;;;;;;;;35.75;31.75;;;;;;;;5013467;28;53928;-54
2022/05/03 08:55:51;;;;;;;;;38.75;33.00;;;;;;;;5032541;28;51155;-55
2022/05/03 08:58:18;;;;;;;;;34.25;32.00;;;;;;;;5031771;28;51238;-51
2022/05/03 09:00:43;;;;;;;;;32.25;31.00;;;;;;;;5036554;28;51282;-48
2022/05/03 09:03:08;;;;;;;;;32.00;30.25;;;;;;;;5046351;28;51794;-50
2022/05/03 09:05:33;;;;;;;;;27.50;26.75;;;;;;;;5037747;28;51053;-49
2022/05/03 09:07:59;;;;;;;;;31.25;28.75;;;;;;;;5040583;28;52529;-49
2022/05/03 09:10:25;;;;;;;;;33.50;31.75;;;;;;;;5031731;28;51398;-47
2022/05/03 09:12:50;;;;;;;;;32.50;30.25;;;;;;;;5031930;28;51092;-48
2022/05/03 09:15:28;;;;;;;;;32.50;30.00;;;;;;;;5029350;28;51178;-49
2022/05/03 09:17:53;;;;;;;;;32.00;29.50;;;;;;;;5025542;28;51096;-48
2022/05/03 09:25:48;;;;;;;;;33.25;30.25;;;;;;;;5034783;28;50961;-50
2022/05/03 09:28:14;;;;;;;;;29.00;27.75;;;;;;;;5032197;28;51262;-47
2022/05/03 09:30:46;;;;;;;;;31.50;30.00;;;;;;;;5034570;28;51077;-50
2022/05/03 09:33:16;;;;;;;;;33.75;30.25;;;;;;;;5031272;28;51858;-51
2022/05/03 09:35:41;;;;;;;;;28.25;25.75;;;;;;;;5029595;28;51157;-48
2022/05/03 09:38:06;;;;;;;;;31.00;29.00;;;;;;;;5031183;28;51321;-50
2022/05/03 09:40:35;;;;;;;;;28.75;26.50;;;;;;;;5035871;28;51293;-50
2022/05/03 09:43:01;;;;;;;;;28.00;27.33;;;;;;;;5029334;28;51349;-47
2022/05/03 09:45:26;;;;;;;;;26.00;25.25;;;;;;;;5043273;28;50980;-51
2022/05/03 09:47:56;;;;;;;;;32.75;30.50;;;;;;;;5020713;28;51506;-48
2022/05/03 09:50:24;;;;;;;;;25.50;25.50;;;;;;;;5045091;28;51068;-48
2022/05/03 09:52:50;;;;;;;;;26.75;25.50;;;;;;;;5036516;28;51970;-48
2022/05/03 09:55:26;;;;;;;;;25.50;24.50;;;;;;;;5035948;28;51056;-50
2022/05/03 09:57:52;;;;;;;;;27.25;25.25;;;;;;;;5013919;28;52766;-49
2022/05/03 10:00:17;;;;;;;;;28.75;27.75;;;;;;;;5034965;28;51204;-50
2022/05/03 10:02:43;;;;;;;;;29.25;27.75;;;;;;;;5026452;28;51965;-51
2022/05/03 10:05:10;;;;;;;;;24.75;23.75;;;;;;;;5037276;28;51017;-50
2022/05/03 10:07:35;;;;;;;;;24.00;23.33;;;;;;;;5044692;28;51015;-49
2022/05/03 10:10:06;;;;;;;;;23.00;21.75;;;;;;;;5048928;28;51419;-48
2022/05/03 10:12:31;;;;;;;;;28.00;25.75;;;;;;;;5037560;28;53164;-48
2022/05/03 10:14:56;;;;;;;;;24.50;23.00;;;;;;;;5050660;28;51456;-48
2022/05/03 10:23:24;;;;;;;;;22.67;21.33;;;;;;;;5051738;28;51620;-48
2022/05/03 10:25:53;;;;;;;;;19.25;18.25;;;;;;;;5042434;28;50917;-52
2022/05/03 10:28:19;;;;;;;;;24.67;23.67;;;;;;;;5037561;28;51113;-50
2022/05/03 10:31:03;;;;;;;;;23.50;23.50;;;;;;;;5052804;28;51265;-48
2022/05/03 10:33:28;;;;;;;;;23.50;21.75;;;;;;;;5052451;28;51923;-48
2022/05/03 10:35:54;;;;;;;;;22.33;21.00;;;;;;;;5052729;28;51509;-50
2022/05/03 10:38:58;;;;;;;;;26.00;25.25;;;;;;;;5052330;28;50978;-47
2022/05/03 10:41:26;;;;;;;;;26.67;25.00;;;;;;;;4951379;28;50965;-48
2022/05/03 10:43:51;;;;;;;;;31.00;28.00;;;;;;;;4946333;28;51358;-47
2022/05/03 10:46:20;;;;;;;;;27.25;25.50;;;;;;;;4976445;28;51182;-49
2022/05/03 10:49:06;;;;;;;;;24.25;23.75;;;;;;;;5048452;28;50972;-49
2022/05/03 10:51:32;;;;;;;;;25.00;25.00;;;;;;;;5038112;28;50804;-51
2022/05/03 10:53:59;;;;;;;;;24.75;24.25;;;;;;;;5028825;28;51466;-51
2022/05/03 10:56:24;;;;;;;;;24.50;23.25;;;;;;;;5025329;28;51943;-49
2022/05/03 10:59:12;;;;;;;;;24.75;22.25;;;;;;;;5018531;28;51172;-49
2022/05/03 11:01:56;;;;;;;;;26.00;23.33;;;;;;;;5021123;28;51224;-48
2022/05/03 11:04:21;;;;;;;;;24.50;21.25;;;;;;;;5024968;28;51291;-47
2022/05/03 11:06:50;;;;;;;;;22.33;22.33;;;;;;;;5021469;28;51978;-49
2022/05/03 11:09:29;;;;;;;;;21.33;21.00;;;;;;;;5007085;28;51349;-48
2022/05/03 11:11:56;;;;;;;;;23.00;21.67;;;;;;;;5020353;28;51471;-48
2022/05/03 11:14:22;;;;;;;;;23.33;21.67;;;;;;;;5029108;28;54134;-50
2022/05/03 11:17:05;;;;;;;;;24.67;24.33;;;;;;;;5021919;28;51257;-49
2022/05/03 11:19:32;;;;;;;;;21.33;19.33;;;;;;;;5022400;28;51484;-50
2022/05/03 11:21:58;;;;;;;;;23.75;22.50;;;;;;;;5010322;28;51339;-52
2022/05/03 11:24:26;;;;;;;;;25.25;23.75;;;;;;;;5006796;28;53797;-49
2022/05/03 11:26:53;;;;;;;;;24.50;22.25;;;;;;;;5041925;28;51010;-49
2022/05/03 11:29:19;;;;;;;;;23.67;21.33;;;;;;;;5050205;28;51029;-50
2022/05/03 11:31:49;;;;;;;;;23.67;21.33;;;;;;;;5051424;28;50799;-49
2022/05/03 11:34:14;;;;;;;;;19.33;19.00;;;;;;;;5018387;28;51998;-50
2022/05/03 11:36:43;;;;;;;;;25.00;24.00;;;;;;;;5034827;28;51145;-48
2022/05/03 11:39:09;;;;;;;;;47.00;37.75;;;;;;;;5041959;28;50901;-50
2022/05/03 11:41:36;;;;;;;;;25.75;25.75;;;;;;;;5038327;28;51087;-50
2022/05/03 11:44:01;;;;;;;;;22.67;21.00;;;;;;;;5045291;28;52511;-50
2022/05/03 11:46:26;;;;;;;;;21.00;21.00;;;;;;;;5031694;28;51370;-50
2022/05/03 11:48:53;;;;;;;;;21.50;21.00;;;;;;;;5031076;28;51002;-50
2022/05/03 11:56:46;;;;;;;;;17.00;16.00;;;;;;;;5044501;28;50891;-51
2022/05/03 11:59:12;;;;;;;;;18.00;16.67;;;;;;;;5051453;28;51100;-50
2022/05/03 12:01:37;;;;;;;;;22.00;21.00;;;;;;;;5025365;28;51203;-48
2022/05/03 12:04:04;;;;;;;;;17.50;17.00;;;;;;;;5047672;28;51162;-49
2022/05/03 12:06:43;;;;;;;;;19.00;18.33;;;;;;;;5046312;28;50942;-50
2022/05/03 12:09:10;;;;;;;;;20.33;20.00;;;;;;;;5035593;28;51248;-49
2022/05/03 12:12:42;;;;;;;;;18.33;17.67;;;;;;;;5041572;28;51388;-51
2022/05/03 12:14:30;;;;;;;;;17.00;16.33;;;;;;;;5048012;28;50905;-48
2022/05/03 12:16:56;;;;;;;;;32.75;29.50;;;;;;;;5048562;28;50879;-51
2022/05/03 12:19:21;;;;;;;;;31.50;30.00;;;;;;;;5031250;28;50856;-48
2022/05/03 12:21:46;;;;;;;;;19.00;17.00;;;;;;;;5046556;28;51259;-48
2022/05/03 12:24:12;;;;;;;;;20.67;20.33;;;;;;;;5042303;28;51912;-48
2022/05/03 12:26:38;;;;;;;;;17.00;16.33;;;;;;;;5032877;28;51077;-51
2022/05/03 12:29:04;;;;;;;;;15.67;14.67;;;;;;;;5044054;28;50991;-51
2022/05/03 12:31:35;;;;;;;;;17.00;17.00;;;;;;;;5049093;28;51313;-48
2022/05/03 12:34:00;;;;;;;;;18.00;17.00;;;;;;;;5054408;28;51867;-51
2022/05/03 12:36:55;;;;;;;;;18.33;18.33;;;;;;;;5054121;28;51099;-49
2022/05/03 12:39:21;;;;;;;;;19.00;18.00;;;;;;;;5040605;28;51327;-47
2022/05/03 12:41:53;;;;;;;;;16.67;16.33;;;;;;;;5054674;28;50870;-49
2022/05/03 12:44:21;;;;;;;;;14.00;14.00;;;;;;;;5038411;28;52732;-48
2022/05/03 12:46:48;;;;;;;;;12.33;11.67;;;;;;;;5044650;28;51130;-50
2022/05/03 12:49:14;;;;;;;;;16.33;16.33;;;;;;;;5050836;28;51163;-51
2022/05/03 12:51:44;;;;;;;;;13.00;13.00;;;;;;;;5052205;28;51128;-49
2022/05/03 12:54:10;;;;;;;;;18.00;18.00;;;;;;;;5054083;28;51347;-48
2022/05/03 12:59:21;;;;;;;;;13.00;13.00;;;;;;;;5044800;28;51061;-47
2022/05/03 13:01:47;;;;;;;;;12.00;12.00;;;;;;;;5035282;28;51342;-49
2022/05/03 13:04:14;;;;;;;;;10.33;10.00;;;;;;;;5045430;28;51146;-49
2022/05/03 13:06:39;;;;;;;;;11.00;11.00;;;;;;;;5051233;28;51004;-50
2022/05/03 13:09:05;;;;;;;;;10.33;10.33;;;;;;;;5035405;28;51163;-47
2022/05/03 13:11:31;;;;;;;;;10.67;9.33;;;;;;;;5053647;28;51206;-48
2022/05/03 13:13:56;;;;;;;;;12.67;12.00;;;;;;;;5053477;28;51139;-53
2022/05/03 13:16:22;;;;;;;;;10.00;10.00;;;;;;;;5039740;28;50972;-50
2022/05/03 13:18:47;;;;;;;;;14.33;14.00;;;;;;;;5009138;28;51074;-47
2022/05/03 13:21:12;;;;;;;;;12.67;11.67;;;;;;;;5042005;28;51089;-50
2022/05/03 13:23:38;;;;;;;;;9.67;9.33;;;;;;;;5034671;28;52124;-48
2022/05/03 13:26:03;;;;;;;;;10.00;10.00;;;;;;;;5053527;28;50799;-49
2022/05/03 13:28:28;;;;;;;;;11.00;10.33;;;;;;;;5053185;28;50933;-49
2022/05/03 13:30:54;;;;;;;;;9.00;9.00;;;;;;;;5053316;28;50828;-48
2022/05/03 13:33:19;;;;;;;;;11.67;11.00;;;;;;;;5047361;28;50927;-48
2022/05/03 13:41:12;;;;;;;;;13.00;11.33;;;;;;;;5040041;28;51158;-48
2022/05/03 13:43:37;;;;;;;;;10.00;9.33;;;;;;;;5049262;28;50923;-49
2022/05/03 13:46:03;;;;;;;;;11.33;11.33;;;;;;;;5032711;28;51259;-51
2022/05/03 13:48:28;;;;;;;;;12.67;11.67;;;;;;;;5016368;28;52000;-48
2022/05/03 13:50:53;;;;;;;;;9.67;9.33;;;;;;;;5009920;28;51875;-49
2022/05/03 13:53:19;;;;;;;;;9.00;9.00;;;;;;;;5027857;28;51426;-53
2022/05/03 13:55:44;;;;;;;;;9.33;9.00;;;;;;;;5011350;28;51090;-48
2022/05/03 13:58:10;;;;;;;;;10.67;10.33;;;;;;;;5026337;28;51122;-48
2022/05/03 14:00:39;;;;;;;;;12.00;10.67;;;;;;;;5015637;28;51303;-49
2022/05/03 14:03:07;;;;;;;;;10.67;10.33;;;;;;;;5026812;28;51267;-50
2022/05/03 14:05:33;;;;;;;;;10.67;10.67;;;;;;;;5021834;28;51175;-48
2022/05/03 14:07:58;;;;;;;;;13.00;12.00;;;;;;;;5017918;28;51035;-50
2022/05/03 14:10:24;;;;;;;;;11.67;11.00;;;;;;;;5025106;28;50968;-50
2022/05/03 14:12:49;;;;;;;;;10.00;10.00;;;;;;;;5015634;28;52838;-48
2022/05/03 14:15:15;;;;;;;;;11.33;11.00;;;;;;;;5046403;28;50933;-49
2022/05/03 14:17:41;;;;;;;;;9.67;9.67;;;;;;;;5051056;28;50974;-49
2022/05/03 14:20:07;;;;;;;;;7.67;7.67;;;;;;;;5053048;28;50965;-49
2022/05/03 14:22:32;;;;;;;;;12.33;11.67;;;;;;;;5044370;28;51188;-48
2022/05/03 14:24:57;;;;;;;;;8.67;8.67;;;;;;;;5036222;28;50961;-48
2022/05/03 14:27:22;;;;;;;;;10.00;9.00;;;;;;;;5012365;28;51114;-51
2022/05/03 14:29:48;;;;;;;;;11.67;10.67;;;;;;;;5041130;28;50959;-48
2022/05/03 14:32:14;;;;;;;;;9.00;9.00;;;;;;;;5050298;28;52247;-49
2022/05/03 14:34:39;;;;;;;;;10.00;10.00;;;;;;;;5044093;28;51014;-49
2022/05/03 14:37:04;;;;;;;;;10.33;10.00;;;;;;;;5052176;28;51020;-48
2022/05/03 14:39:29;;;;;;;;;9.00;8.00;;;;;;;;5027716;28;50864;-48
2022/05/03 14:41:55;;;;;;;;;8.33;8.00;;;;;;;;5035775;28;51589;-50
2022/05/03 14:44:20;;;;;;;;;10.00;10.00;;;;;;;;5049447;28;51111;-49
2022/05/03 14:46:45;;;;;;;;;9.33;9.00;;;;;;;;5048940;28;51112;-48
2022/05/03 14:49:10;;;;;;;;;10.67;10.00;;;;;;;;5048760;28;51174;-48
2022/05/03 14:51:36;;;;;;;;;8.00;8.00;;;;;;;;5051455;28;51027;-49
2022/05/03 14:54:01;;;;;;;;;11.00;11.00;;;;;;;;5033547;28;51057;-50
2022/05/03 15:04:39;;;;;;;;;10.00;10.00;;;;;;;;5043165;28;51053;-50
2022/05/03 15:07:04;;;;;;;;;12.33;11.33;;;;;;;;5051556;28;51050;-48
2022/05/03 15:09:29;;;;;;;;;8.33;8.33;;;;;;;;5045512;28;51215;-48
2022/05/03 15:11:55;;;;;;;;;12.00;11.00;;;;;;;;5031039;28;51177;-49
2022/05/03 15:14:20;;;;;;;;;10.33;10.00;;;;;;;;5040859;28;51035;-52
2022/05/03 15:16:45;;;;;;;;;9.33;9.00;;;;;;;;5050433;28;51195;-48
2022/05/03 15:19:10;;;;;;;;;9.00;9.00;;;;;;;;5049479;28;51276;-50